Airfield :
LOGIN :

Register | Disclaimer

   EN    FR    IT 

 










Legend :    VFR   Marginal VFR   IFR   Intensive IFR   Very Intensive IFR
Visi :
Ceiling :
>= 8 km
>= 3000ft
5 to 8 km
1000 to 3000 ft
1500m to 5 km
500 to 1000 ft
800 to 1500m
200 to 500 ft
< 800m
< 200 ft
Symbols :   Thunderstorms  Fog  Heavy snow  Heavy precipitations  Wind > 20 kt
SIGMETs :     Misc.  Thunderstorms  Icing  Turbulence  Mountain Waves  Volcanic Ashes






- Airport Elevation : 233 ft
- IATA code : REU


LERS - Reus Tarragona

CURRENT METAR :
  • 290630Z 29003KT 260V330 9999 FEW040 09/08 Q1016

EXPIRED METARs :
  • 290600Z VRB01KT 9999 FEW040 08/08 Q1015
  • 290530Z 00000KT 9999 FEW040 08/07 Q1015
  • 290500Z VRB01KT 9999 FEW040 07/07 Q1015
  • 290430Z AUTO 00000KT //// R25///// // NSC 06/06 Q1015
  • 290400Z AUTO 00000KT //// R25///// // NCD 07/07 Q1015

TAF TAF LERS
Valid from the 29 at 03:00 until the 30 at 03:00 UTC


290200Z 2903/3003 VRB04KT 9999 FEW020 TX20/2913Z TN06/2906Z
BECMG 2906/2908 27011KT
BECMG 2915/2917 21010KT
BECMG 2919/2921 30012KT



MET'MAP, your aeronautical weather chart ! - Copyright ORBIFLY December 2007 - Disclaimer

ORBIFLY MET'MAP TEAM :

Programming & Development : Alexandra Zaïnal
Concept & original design : Baudouin d'Aumeries
Assistance for programming : Marc-Olivier Méhu
Technical & hardware support : Manuel Goepfert

Contact : metmap@orbifly.com




SOURCES & CREDITS :

   NOAA